Time;durP1;ratioP1;P1;durP2;ratioP2;P2;SDS_P1;SDS_P2;PMS_P1;PMS_P2;Temp;Humidity;BMP_temperature;BMP_pressure;BME280_temperature;BME280_humidity;BME280_pressure;Samples;Min_cycle;Max_cycle;Signal;HPM_P1;HPM_P2
2023/04/22 00:00:37;;;;;;;2.30;2.00;;;;;;;;;;5019737;28;20206;-62
2023/04/22 00:03:07;;;;;;;3.25;1.90;;;;;;;;;;5016524;28;20264;-62
2023/04/22 00:05:35;;;;;;;1.85;1.67;;;;;;;;;;5016465;28;20214;-63
2023/04/22 00:08:02;;;;;;;2.45;1.83;;;;;;;;;;5013683;28;20579;-62
2023/04/22 00:10:34;;;;;;;1.88;1.77;;;;;;;;;;5017378;28;20574;-62
2023/04/22 00:13:03;;;;;;;2.10;1.88;;;;;;;;;;5028942;28;20214;-63
2023/04/22 00:15:31;;;;;;;1.98;1.80;;;;;;;;;;5014302;28;20275;-62
2023/04/22 00:17:59;;;;;;;1.90;1.80;;;;;;;;;;5016054;28;20576;-62
2023/04/22 00:20:28;;;;;;;3.63;1.80;;;;;;;;;;5019295;28;20495;-62
2023/04/22 00:22:57;;;;;;;2.03;1.83;;;;;;;;;;5025762;28;20225;-62
2023/04/22 00:25:25;;;;;;;2.40;1.70;;;;;;;;;;5020587;28;20202;-62
2023/04/22 00:27:54;;;;;;;1.90;1.77;;;;;;;;;;5022411;28;20217;-63
2023/04/22 00:30:22;;;;;;;1.70;1.60;;;;;;;;;;5022227;28;20248;-62
2023/04/22 00:32:50;;;;;;;2.45;1.90;;;;;;;;;;5025723;28;20489;-63
2023/04/22 00:35:17;;;;;;;3.05;1.75;;;;;;;;;;5027559;28;20198;-62
2023/04/22 00:37:46;;;;;;;2.50;1.80;;;;;;;;;;5019978;28;20210;-62
2023/04/22 00:40:14;;;;;;;2.17;1.70;;;;;;;;;;5033393;28;20203;-62
2023/04/22 00:42:42;;;;;;;2.92;1.85;;;;;;;;;;5020063;28;20234;-63
2023/04/22 00:45:13;;;;;;;2.30;1.70;;;;;;;;;;5020465;28;20264;-62
2023/04/22 00:47:41;;;;;;;3.05;1.90;;;;;;;;;;5038765;28;20213;-62
2023/04/22 00:50:09;;;;;;;2.47;1.70;;;;;;;;;;5022952;28;20205;-63
2023/04/22 00:52:39;;;;;;;3.25;1.85;;;;;;;;;;5029380;28;20344;-62
2023/04/22 00:55:07;;;;;;;2.58;2.03;;;;;;;;;;5020771;28;20210;-63
2023/04/22 00:57:35;;;;;;;1.80;1.70;;;;;;;;;;5022094;28;20288;-63
2023/04/22 01:00:03;;;;;;;1.90;1.80;;;;;;;;;;5037151;28;20202;-63
2023/04/22 01:02:33;;;;;;;2.00;1.80;;;;;;;;;;5031164;28;20320;-62
2023/04/22 01:05:01;;;;;;;2.58;1.88;;;;;;;;;;5039374;28;20198;-63
2023/04/22 01:07:29;;;;;;;2.40;1.95;;;;;;;;;;5035744;28;20205;-63
2023/04/22 01:09:57;;;;;;;2.05;1.95;;;;;;;;;;5027160;28;20275;-63
2023/04/22 01:12:25;;;;;;;2.40;2.00;;;;;;;;;;5039674;28;20647;-63
2023/04/22 01:14:52;;;;;;;2.13;1.80;;;;;;;;;;5019916;28;20206;-62
2023/04/22 01:17:20;;;;;;;2.70;1.80;;;;;;;;;;5026763;28;20332;-62
2023/04/22 01:19:51;;;;;;;4.40;1.83;;;;;;;;;;5023761;28;20206;-62
2023/04/22 01:22:19;;;;;;;2.65;1.88;;;;;;;;;;5019583;28;20230;-63
2023/04/22 01:24:50;;;;;;;1.98;1.77;;;;;;;;;;5019659;28;20202;-63
2023/04/22 01:27:18;;;;;;;1.85;1.75;;;;;;;;;;5022425;28;20202;-63
2023/04/22 01:29:46;;;;;;;1.98;1.88;;;;;;;;;;5019026;28;20210;-63
2023/04/22 01:32:14;;;;;;;2.00;1.77;;;;;;;;;;5019192;28;20210;-63
2023/04/22 01:34:42;;;;;;;2.30;2.10;;;;;;;;;;5019539;28;20210;-63
2023/04/22 01:37:10;;;;;;;2.25;1.77;;;;;;;;;;5019929;28;20586;-63
2023/04/22 01:39:38;;;;;;;2.03;1.88;;;;;;;;;;5019606;28;20229;-62
2023/04/22 01:42:07;;;;;;;1.75;1.52;;;;;;;;;;5019331;28;20240;-63
2023/04/22 01:44:35;;;;;;;1.90;1.80;;;;;;;;;;5019336;28;20217;-63
2023/04/22 01:47:03;;;;;;;1.95;1.80;;;;;;;;;;5019373;28;20441;-63
2023/04/22 01:49:30;;;;;;;2.33;2.13;;;;;;;;;;5019144;28;20545;-62
2023/04/22 01:51:58;;;;;;;1.92;1.70;;;;;;;;;;5024032;28;20344;-62
2023/04/22 01:54:26;;;;;;;1.90;1.67;;;;;;;;;;5038420;28;21068;-62
2023/04/22 01:56:54;;;;;;;1.90;1.80;;;;;;;;;;5033227;28;20216;-63
2023/04/22 01:59:22;;;;;;;1.90;1.80;;;;;;;;;;5029158;28;20209;-63
2023/04/22 02:01:50;;;;;;;1.85;1.75;;;;;;;;;;5030209;28;20202;-63
2023/04/22 02:04:18;;;;;;;2.28;2.08;;;;;;;;;;5019092;28;20245;-62
2023/04/22 02:06:45;;;;;;;2.53;1.80;;;;;;;;;;5025653;28;20211;-62
2023/04/22 02:09:12;;;;;;;1.98;1.75;;;;;;;;;;5018222;28;20206;-62
2023/04/22 02:11:40;;;;;;;2.03;1.77;;;;;;;;;;5017993;28;20286;-62
2023/04/22 02:14:08;;;;;;;2.40;1.83;;;;;;;;;;5017733;28;20488;-62
2023/04/22 02:16:37;;;;;;;2.50;1.95;;;;;;;;;;5018731;28;20289;-62
2023/04/22 02:19:04;;;;;;;2.05;1.77;;;;;;;;;;5022917;28;20218;-62
2023/04/22 02:21:32;;;;;;;2.17;1.98;;;;;;;;;;5018534;28;20312;-63
2023/04/22 02:24:00;;;;;;;5.10;2.00;;;;;;;;;;5018043;28;20230;-62
2023/04/22 02:26:27;;;;;;;2.58;2.20;;;;;;;;;;5021065;28;20210;-62
2023/04/22 02:28:55;;;;;;;3.08;2.00;;;;;;;;;;5016769;28;20203;-62
2023/04/22 02:31:23;;;;;;;2.65;2.22;;;;;;;;;;5022807;28;20215;-62
2023/04/22 02:33:53;;;;;;;5.25;1.90;;;;;;;;;;5026414;28;20195;-63
2023/04/22 02:36:20;;;;;;;2.20;2.00;;;;;;;;;;5018751;28;20248;-62
2023/04/22 02:38:48;;;;;;;3.42;2.00;;;;;;;;;;5016980;28;20256;-63
2023/04/22 02:41:16;;;;;;;2.00;1.90;;;;;;;;;;4998551;28;20630;-62
2023/04/22 02:43:45;;;;;;;2.20;2.00;;;;;;;;;;4997573;28;20626;-62
2023/04/22 02:46:14;;;;;;;3.40;1.90;;;;;;;;;;5014794;28;20487;-63
2023/04/22 02:48:42;;;;;;;2.55;1.90;;;;;;;;;;5018223;28;20380;-62
2023/04/22 02:51:11;;;;;;;1.92;1.70;;;;;;;;;;5018378;28;20300;-63
2023/04/22 02:53:38;;;;;;;1.83;1.70;;;;;;;;;;5036460;28;20275;-63
2023/04/22 02:56:07;;;;;;;2.72;1.95;;;;;;;;;;5038102;28;20248;-63
2023/04/22 02:58:34;;;;;;;1.80;1.70;;;;;;;;;;5037937;28;20201;-63
2023/04/22 03:01:02;;;;;;;2.10;1.90;;;;;;;;;;5037524;28;20214;-63
2023/04/22 03:03:30;;;;;;;2.58;1.95;;;;;;;;;;5038039;28;20320;-63
2023/04/22 03:05:58;;;;;;;2.80;2.10;;;;;;;;;;5037904;28;20241;-63
2023/04/22 03:08:26;;;;;;;2.08;1.70;;;;;;;;;;5037708;28;20580;-63
2023/04/22 03:10:54;;;;;;;2.38;2.08;;;;;;;;;;5037638;28;20300;-63
2023/04/22 03:13:22;;;;;;;2.10;1.90;;;;;;;;;;5037120;28;20206;-62
2023/04/22 03:15:49;;;;;;;2.00;1.80;;;;;;;;;;5036966;28;20206;-63
2023/04/22 03:18:17;;;;;;;1.75;1.65;;;;;;;;;;5037610;28;20213;-63
2023/04/22 03:20:44;;;;;;;3.78;2.13;;;;;;;;;;5037495;28;20300;-63
2023/04/22 03:23:11;;;;;;;2.13;1.63;;;;;;;;;;5037364;28;20238;-63
2023/04/22 03:25:41;;;;;;;3.63;1.90;;;;;;;;;;5037202;28;20628;-63
2023/04/22 03:28:08;;;;;;;2.35;1.80;;;;;;;;;;5037217;28;20213;-63
2023/04/22 03:30:36;;;;;;;2.25;2.08;;;;;;;;;;5037210;28;20645;-63
2023/04/22 03:33:03;;;;;;;2.40;1.85;;;;;;;;;;5037421;28;20279;-63
2023/04/22 03:35:30;;;;;;;2.20;2.00;;;;;;;;;;5037887;28;20252;-63
2023/04/22 03:37:58;;;;;;;2.70;2.03;;;;;;;;;;5037567;28;20244;-63
2023/04/22 03:40:26;;;;;;;2.10;1.85;;;;;;;;;;5037254;28;20209;-63
2023/04/22 03:42:55;;;;;;;2.40;2.13;;;;;;;;;;5037115;28;20287;-63
2023/04/22 03:45:22;;;;;;;3.13;2.15;;;;;;;;;;5037499;28;20295;-63
2023/04/22 03:47:50;;;;;;;2.05;1.58;;;;;;;;;;5037308;28;20466;-63
2023/04/22 03:50:17;;;;;;;2.72;1.77;;;;;;;;;;5036955;28;20236;-63
2023/04/22 03:52:45;;;;;;;2.28;1.80;;;;;;;;;;5036759;28;20273;-63
2023/04/22 03:55:12;;;;;;;2.72;2.00;;;;;;;;;;5039260;28;20216;-63
2023/04/22 03:57:39;;;;;;;2.78;1.88;;;;;;;;;;5040952;28;20228;-63
2023/04/22 04:00:09;;;;;;;2.40;2.00;;;;;;;;;;5041285;28;20263;-63
2023/04/22 04:02:36;;;;;;;2.53;1.85;;;;;;;;;;5041384;28;20217;-63
2023/04/22 04:05:05;;;;;;;2.30;1.73;;;;;;;;;;5041300;28;20232;-63
2023/04/22 04:07:32;;;;;;;2.72;2.00;;;;;;;;;;5040622;28;20614;-63
2023/04/22 04:10:00;;;;;;;2.25;1.98;;;;;;;;;;5040778;28;20216;-63
2023/04/22 04:12:27;;;;;;;1.75;1.65;;;;;;;;;;5040699;28;20243;-63
2023/04/22 04:14:54;;;;;;;2.63;1.90;;;;;;;;;;5040633;28;20206;-63
2023/04/22 04:17:24;;;;;;;2.00;1.85;;;;;;;;;;5040345;28;20217;-63
2023/04/22 04:19:52;;;;;;;1.92;1.80;;;;;;;;;;5040954;28;20577;-63
2023/04/22 04:22:19;;;;;;;1.77;1.67;;;;;;;;;;5040516;28;20205;-63
2023/04/22 04:24:46;;;;;;;2.13;1.88;;;;;;;;;;5040483;28;20230;-63
2023/04/22 04:27:14;;;;;;;2.45;2.00;;;;;;;;;;5040745;28;20218;-63
2023/04/22 04:29:41;;;;;;;2.05;1.70;;;;;;;;;;5040471;28;20555;-63
2023/04/22 04:32:09;;;;;;;2.50;2.05;;;;;;;;;;5040056;28;20241;-63
2023/04/22 04:34:38;;;;;;;2.75;1.75;;;;;;;;;;5040505;28;20202;-63
2023/04/22 04:37:05;;;;;;;1.88;1.77;;;;;;;;;;5040639;28;20285;-63
2023/04/22 04:39:32;;;;;;;2.05;1.88;;;;;;;;;;5040449;28;20214;-63
2023/04/22 04:41:59;;;;;;;2.00;1.90;;;;;;;;;;5040148;28;20205;-63
2023/04/22 04:44:27;;;;;;;2.08;1.98;;;;;;;;;;5040056;28;20233;-62
2023/04/22 04:46:55;;;;;;;1.60;1.50;;;;;;;;;;5040500;28;20213;-62
2023/04/22 04:49:22;;;;;;;2.00;1.80;;;;;;;;;;5040083;28;20210;-62
2023/04/22 04:51:50;;;;;;;2.17;1.98;;;;;;;;;;5039815;28;20674;-62
2023/04/22 04:54:18;;;;;;;2.00;1.90;;;;;;;;;;5040312;28;20578;-62
2023/04/22 04:56:45;;;;;;;1.90;1.80;;;;;;;;;;5039883;28;20647;-62
2023/04/22 04:59:12;;;;;;;1.80;1.70;;;;;;;;;;5039842;28;20212;-62
2023/04/22 05:01:40;;;;;;;1.98;1.80;;;;;;;;;;5040157;28;20506;-62
2023/04/22 05:04:07;;;;;;;1.90;1.63;;;;;;;;;;5039974;28;20237;-62
2023/04/22 05:06:35;;;;;;;1.88;1.77;;;;;;;;;;5038713;28;20205;-62
2023/04/22 05:09:03;;;;;;;1.75;1.65;;;;;;;;;;5040028;28;20217;-62
2023/04/22 05:11:31;;;;;;;1.85;1.58;;;;;;;;;;5039717;28;20240;-62
2023/04/22 05:13:58;;;;;;;1.90;1.70;;;;;;;;;;5039452;28;20324;-62
2023/04/22 05:16:26;;;;;;;1.65;1.55;;;;;;;;;;5039846;28;20299;-63
2023/04/22 05:18:53;;;;;;;2.00;1.90;;;;;;;;;;5039334;28;20214;-63
2023/04/22 05:21:20;;;;;;;2.08;1.88;;;;;;;;;;5039656;28;20213;-63
2023/04/22 05:23:48;;;;;;;1.80;1.70;;;;;;;;;;5039185;28;20233;-63
2023/04/22 05:26:16;;;;;;;1.80;1.70;;;;;;;;;;5039505;28;20209;-63
2023/04/22 05:28:44;;;;;;;1.92;1.83;;;;;;;;;;5039147;28;20213;-63
2023/04/22 05:31:11;;;;;;;2.03;1.92;;;;;;;;;;5039427;28;20216;-63
2023/04/22 05:33:39;;;;;;;2.05;1.95;;;;;;;;;;5039051;28;20214;-63
2023/04/22 05:36:06;;;;;;;1.77;1.67;;;;;;;;;;5039071;28;20205;-63
2023/04/22 05:38:33;;;;;;;1.95;1.85;;;;;;;;;;5039052;28;20500;-63
2023/04/22 05:41:01;;;;;;;1.80;1.70;;;;;;;;;;5038851;28;20205;-63
2023/04/22 05:43:30;;;;;;;1.67;1.58;;;;;;;;;;5038605;28;20229;-63
2023/04/22 05:45:57;;;;;;;2.50;1.77;;;;;;;;;;5038739;28;20583;-63
2023/04/22 05:48:24;;;;;;;2.00;1.80;;;;;;;;;;5039359;28;20206;-63
2023/04/22 05:50:53;;;;;;;2.00;1.90;;;;;;;;;;5038631;28;20216;-63
2023/04/22 05:53:20;;;;;;;1.80;1.70;;;;;;;;;;5038499;28;20248;-63
2023/04/22 05:55:48;;;;;;;2.13;1.92;;;;;;;;;;5038999;28;20213;-63
2023/04/22 05:58:15;;;;;;;1.90;1.80;;;;;;;;;;5038815;28;20213;-63
2023/04/22 06:00:45;;;;;;;1.70;1.60;;;;;;;;;;5038046;28;20217;-63
2023/04/22 06:03:12;;;;;;;1.90;1.80;;;;;;;;;;5037759;28;20237;-63
2023/04/22 06:05:39;;;;;;;1.55;1.45;;;;;;;;;;5038060;28;20213;-63
2023/04/22 06:08:07;;;;;;;1.88;1.77;;;;;;;;;;5037956;28;20214;-63
2023/04/22 06:10:34;;;;;;;1.70;1.60;;;;;;;;;;5038065;28;20205;-63
2023/04/22 06:13:01;;;;;;;1.63;1.52;;;;;;;;;;5037600;28;20584;-63
2023/04/22 06:15:29;;;;;;;1.90;1.80;;;;;;;;;;5037877;28;20201;-63
2023/04/22 06:17:58;;;;;;;1.70;1.60;;;;;;;;;;5037725;28;20206;-63
2023/04/22 06:20:25;;;;;;;1.70;1.60;;;;;;;;;;5037984;28;20247;-63
2023/04/22 06:22:53;;;;;;;1.70;1.60;;;;;;;;;;5037969;28;20205;-63
2023/04/22 06:25:20;;;;;;;1.70;1.60;;;;;;;;;;5038001;28;20233;-63
2023/04/22 06:27:48;;;;;;;1.77;1.60;;;;;;;;;;5038309;28;20570;-63
2023/04/22 06:30:15;;;;;;;1.60;1.50;;;;;;;;;;5037972;28;20213;-63
2023/04/22 06:32:42;;;;;;;1.52;1.42;;;;;;;;;;5037974;28;20213;-62
2023/04/22 06:35:12;;;;;;;1.40;1.30;;;;;;;;;;5037737;28;20213;-62
2023/04/22 06:37:39;;;;;;;1.75;1.65;;;;;;;;;;5038374;28;20232;-62
2023/04/22 06:40:07;;;;;;;1.73;1.63;;;;;;;;;;5038078;28;20206;-62
2023/04/22 06:42:34;;;;;;;1.90;1.80;;;;;;;;;;5037468;28;20209;-62
2023/04/22 06:45:01;;;;;;;1.75;1.65;;;;;;;;;;5037548;28;20241;-62
2023/04/22 06:47:29;;;;;;;1.90;1.67;;;;;;;;;;5036300;28;20213;-62
2023/04/22 06:49:56;;;;;;;1.95;1.85;;;;;;;;;;5036116;28;20217;-62
2023/04/22 06:52:25;;;;;;;2.00;1.90;;;;;;;;;;5036107;28;20245;-62
2023/04/22 06:54:52;;;;;;;2.10;1.90;;;;;;;;;;5035813;28;20202;-62
2023/04/22 06:57:19;;;;;;;1.80;1.70;;;;;;;;;;5036687;28;20217;-62
2023/04/22 06:59:47;;;;;;;2.00;1.90;;;;;;;;;;5036856;28;20256;-62
2023/04/22 07:02:14;;;;;;;2.10;2.00;;;;;;;;;;5036150;28;20213;-62
2023/04/22 07:04:41;;;;;;;1.75;1.60;;;;;;;;;;5035986;28;20221;-63
2023/04/22 07:07:09;;;;;;;1.63;1.52;;;;;;;;;;5036017;28;20213;-63
2023/04/22 07:09:37;;;;;;;1.77;1.67;;;;;;;;;;5036394;28;20217;-62
2023/04/22 07:12:05;;;;;;;1.90;1.80;;;;;;;;;;5036549;28;20216;-62
2023/04/22 07:14:32;;;;;;;1.90;1.80;;;;;;;;;;5037069;28;20209;-63
2023/04/22 07:17:00;;;;;;;1.80;1.70;;;;;;;;;;5036632;28;20212;-63
2023/04/22 07:19:28;;;;;;;1.75;1.65;;;;;;;;;;5036616;28;20577;-63
2023/04/22 07:21:56;;;;;;;1.70;1.60;;;;;;;;;;5036953;28;20233;-63
2023/04/22 07:24:23;;;;;;;1.83;1.70;;;;;;;;;;5036222;28;20256;-63
2023/04/22 07:26:52;;;;;;;1.70;1.60;;;;;;;;;;5035989;28;20213;-63
2023/04/22 07:29:19;;;;;;;1.83;1.73;;;;;;;;;;5035716;28;20546;-63
2023/04/22 07:31:47;;;;;;;2.00;1.70;;;;;;;;;;5035938;28;20304;-63
2023/04/22 07:34:14;;;;;;;1.60;1.50;;;;;;;;;;5036023;28;20205;-63
2023/04/22 07:36:41;;;;;;;1.75;1.65;;;;;;;;;;5036069;28;20578;-64
2023/04/22 07:39:09;;;;;;;1.60;1.50;;;;;;;;;;5036481;28;20205;-63
2023/04/22 07:41:36;;;;;;;2.00;1.90;;;;;;;;;;5035928;28;20305;-63
2023/04/22 07:44:05;;;;;;;1.90;1.80;;;;;;;;;;5036306;28;20324;-63
2023/04/22 07:46:33;;;;;;;1.95;1.85;;;;;;;;;;5036172;28;20205;-63
2023/04/22 07:49:00;;;;;;;1.75;1.65;;;;;;;;;;5036630;28;20214;-63
2023/04/22 07:51:27;;;;;;;1.70;1.60;;;;;;;;;;5035606;28;20213;-63
2023/04/22 07:53:55;;;;;;;1.60;1.50;;;;;;;;;;5036247;28;20663;-63
2023/04/22 07:56:22;;;;;;;2.33;1.90;;;;;;;;;;5035904;28;20236;-63
2023/04/22 07:58:50;;;;;;;1.55;1.40;;;;;;;;;;5035292;28;20301;-63
2023/04/22 08:01:19;;;;;;;1.83;1.60;;;;;;;;;;5034401;28;20585;-63
2023/04/22 08:03:46;;;;;;;2.00;1.80;;;;;;;;;;5035456;28;20213;-63
2023/04/22 08:06:13;;;;;;;1.88;1.60;;;;;;;;;;5035546;28;20202;-63
2023/04/22 08:08:40;;;;;;;1.60;1.50;;;;;;;;;;5034849;28;20205;-63
2023/04/22 08:11:08;;;;;;;2.15;1.95;;;;;;;;;;5034910;28;20605;-63
2023/04/22 08:13:35;;;;;;;1.73;1.63;;;;;;;;;;5035480;28;20213;-63
2023/04/22 08:16:02;;;;;;;1.80;1.70;;;;;;;;;;5021625;28;20210;-63
2023/04/22 08:18:31;;;;;;;2.75;2.10;;;;;;;;;;5015481;28;20248;-63
2023/04/22 08:20:58;;;;;;;1.98;1.88;;;;;;;;;;5016043;28;20218;-63
2023/04/22 08:23:25;;;;;;;1.70;1.60;;;;;;;;;;5015672;28;20221;-63
2023/04/22 08:25:53;;;;;;;2.03;1.80;;;;;;;;;;5015387;28;20230;-63
2023/04/22 08:28:20;;;;;;;2.08;1.98;;;;;;;;;;5014480;28;20488;-63
2023/04/22 08:30:48;;;;;;;1.83;1.73;;;;;;;;;;5015376;28;20233;-64
2023/04/22 08:33:15;;;;;;;1.90;1.80;;;;;;;;;;5015711;28;20206;-63
2023/04/22 08:35:44;;;;;;;2.13;1.90;;;;;;;;;;5015920;28;20194;-63
2023/04/22 08:38:11;;;;;;;2.00;1.80;;;;;;;;;;5016339;28;20214;-63
2023/04/22 08:40:41;;;;;;;2.00;1.90;;;;;;;;;;5016717;28;20333;-63
2023/04/22 08:43:08;;;;;;;1.92;1.83;;;;;;;;;;5018437;28;20202;-63
2023/04/22 08:45:35;;;;;;;2.63;2.25;;;;;;;;;;5018480;28;20245;-63
2023/04/22 08:48:03;;;;;;;1.90;1.80;;;;;;;;;;5018973;28;20690;-63
2023/04/22 08:50:31;;;;;;;2.00;1.80;;;;;;;;;;5018810;28;20660;-63
2023/04/22 08:53:00;;;;;;;2.10;2.00;;;;;;;;;;5018650;28;20329;-63
2023/04/22 08:55:27;;;;;;;1.63;1.52;;;;;;;;;;5019054;28;20202;-63
2023/04/22 08:57:55;;;;;;;1.83;1.70;;;;;;;;;;5018517;28;20213;-63
2023/04/22 09:00:22;;;;;;;2.10;2.00;;;;;;;;;;5018754;28;20210;-63
2023/04/22 09:02:50;;;;;;;1.75;1.65;;;;;;;;;;5017989;28;20601;-63
2023/04/22 09:05:17;;;;;;;2.35;1.90;;;;;;;;;;5017879;28;20262;-63
2023/04/22 09:07:45;;;;;;;2.00;1.90;;;;;;;;;;5017979;28;20207;-63
2023/04/22 09:10:14;;;;;;;2.00;1.90;;;;;;;;;;5017721;28;20198;-63
2023/04/22 09:12:42;;;;;;;1.90;1.80;;;;;;;;;;5018068;28;20556;-63
2023/04/22 09:15:09;;;;;;;2.10;2.00;;;;;;;;;;5019019;28;20202;-63
2023/04/22 09:17:37;;;;;;;1.98;1.77;;;;;;;;;;5017833;28;20213;-63
2023/04/22 09:20:06;;;;;;;2.65;2.00;;;;;;;;;;5018777;28;20206;-63
2023/04/22 09:22:38;;;;;;;2.25;2.05;;;;;;;;;;5017952;28;20213;-63
2023/04/22 09:25:06;;;;;;;3.92;2.10;;;;;;;;;;5018260;28;20292;-63
2023/04/22 09:27:36;;;;;;;2.60;2.40;;;;;;;;;;5018314;28;20206;-63
2023/04/22 09:30:08;;;;;;;2.20;2.00;;;;;;;;;;5018055;28;20241;-63
2023/04/22 09:32:36;;;;;;;2.20;2.00;;;;;;;;;;5017992;28;20213;-63
2023/04/22 09:35:03;;;;;;;2.20;2.00;;;;;;;;;;5017336;28;20593;-63
2023/04/22 09:37:32;;;;;;;2.25;2.05;;;;;;;;;;5017505;28;20218;-63
2023/04/22 09:39:59;;;;;;;1.98;1.88;;;;;;;;;;5017535;28;20225;-63
2023/04/22 09:42:26;;;;;;;2.45;2.08;;;;;;;;;;5017503;28;20214;-63
2023/04/22 09:44:55;;;;;;;2.40;1.98;;;;;;;;;;5017276;28;20781;-63
2023/04/22 09:47:23;;;;;;;2.30;2.10;;;;;;;;;;5017779;28;20217;-63
2023/04/22 09:49:51;;;;;;;2.03;1.92;;;;;;;;;;5017333;28;20317;-63
2023/04/22 09:52:25;;;;;;;2.17;1.98;;;;;;;;;;5016413;28;20621;-63
2023/04/22 09:54:53;;;;;;;2.45;2.25;;;;;;;;;;5017368;28;20288;-63
2023/04/22 09:57:20;;;;;;;2.30;2.05;;;;;;;;;;5016759;28;20206;-63
2023/04/22 09:59:49;;;;;;;2.65;2.25;;;;;;;;;;5017337;28;20214;-63
2023/04/22 10:02:17;;;;;;;2.20;2.00;;;;;;;;;;5016754;28;20268;-63
2023/04/22 10:04:46;;;;;;;2.30;2.10;;;;;;;;;;5017293;28;20260;-63
2023/04/22 10:07:14;;;;;;;2.22;2.05;;;;;;;;;;5016930;28;20598;-63
2023/04/22 10:09:41;;;;;;;2.00;1.90;;;;;;;;;;5017065;28;20215;-63
2023/04/22 10:12:09;;;;;;;2.92;2.10;;;;;;;;;;5018050;28;20229;-63
2023/04/22 10:14:36;;;;;;;2.50;2.30;;;;;;;;;;5017962;28;20206;-63
2023/04/22 10:17:03;;;;;;;2.47;2.30;;;;;;;;;;5017092;28;20210;-63
2023/04/22 10:19:34;;;;;;;2.20;2.00;;;;;;;;;;5017104;28;20698;-63
2023/04/22 10:22:02;;;;;;;2.47;1.98;;;;;;;;;;5016129;28;20207;-63
2023/04/22 10:24:35;;;;;;;2.47;2.28;;;;;;;;;;5016761;28;20218;-63
2023/04/22 10:27:05;;;;;;;2.17;2.08;;;;;;;;;;5016258;28;20202;-63
2023/04/22 10:29:37;;;;;;;2.60;2.40;;;;;;;;;;5016260;28;20206;-63
2023/04/22 10:32:05;;;;;;;2.17;1.98;;;;;;;;;;5016810;28;20203;-63
2023/04/22 10:34:34;;;;;;;2.50;2.30;;;;;;;;;;5016016;28;20289;-63
2023/04/22 10:37:02;;;;;;;3.15;2.20;;;;;;;;;;5016026;28;20333;-63
2023/04/22 10:39:30;;;;;;;2.50;2.10;;;;;;;;;;5016053;28;20217;-63
2023/04/22 10:41:58;;;;;;;2.03;1.92;;;;;;;;;;5016228;28;20234;-63
2023/04/22 10:44:29;;;;;;;2.17;1.98;;;;;;;;;;5016138;28;20582;-63
2023/04/22 10:46:57;;;;;;;2.10;2.00;;;;;;;;;;5015732;28;20342;-63
2023/04/22 10:49:25;;;;;;;2.38;2.17;;;;;;;;;;5015805;28;20213;-63
2023/04/22 10:51:54;;;;;;;2.22;2.13;;;;;;;;;;5015264;28;20652;-63
2023/04/22 10:54:40;;;;;;;2.42;2.22;;;;;;;;;;5015241;28;20269;-63
2023/04/22 10:57:08;;;;;;;2.40;2.20;;;;;;;;;;5014120;28;20206;-63
2023/04/22 10:59:42;;;;;;;2.97;2.28;;;;;;;;;;5014651;28;20214;-63
2023/04/22 11:02:10;;;;;;;2.17;2.08;;;;;;;;;;5016308;28;20213;-63
2023/04/22 11:04:38;;;;;;;2.13;1.98;;;;;;;;;;5014969;28;20517;-63
2023/04/22 11:07:16;;;;;;;2.40;2.20;;;;;;;;;;5015730;28;20234;-63
2023/04/22 11:09:45;;;;;;;2.40;2.17;;;;;;;;;;5015124;28;20311;-63
2023/04/22 11:12:31;;;;;;;2.28;2.08;;;;;;;;;;5015274;28;20199;-63
2023/04/22 11:14:59;;;;;;;2.00;1.90;;;;;;;;;;5015465;28;20213;-63
2023/04/22 11:17:27;;;;;;;2.38;2.17;;;;;;;;;;5016229;28;20218;-63
2023/04/22 11:19:55;;;;;;;2.10;2.00;;;;;;;;;;5015506;28;20489;-63
2023/04/22 11:22:24;;;;;;;2.15;1.95;;;;;;;;;;5016044;28;20301;-63
2023/04/22 11:24:55;;;;;;;2.13;2.00;;;;;;;;;;5015594;28;20210;-63
2023/04/22 11:27:25;;;;;;;2.42;2.03;;;;;;;;;;5014961;28;20214;-63
2023/04/22 11:30:02;;;;;;;2.00;1.90;;;;;;;;;;5015213;28;20315;-63
2023/04/22 11:32:29;;;;;;;2.30;2.10;;;;;;;;;;5014554;28;20613;-63
2023/04/22 11:34:57;;;;;;;2.35;1.88;;;;;;;;;;5015296;28;20598;-63
2023/04/22 11:37:26;;;;;;;2.17;1.98;;;;;;;;;;5015525;28;20217;-63
2023/04/22 11:39:53;;;;;;;2.22;2.03;;;;;;;;;;5014953;28;20202;-63
2023/04/22 11:42:22;;;;;;;2.20;2.00;;;;;;;;;;5014222;28;20284;-63
2023/04/22 11:44:49;;;;;;;2.10;1.90;;;;;;;;;;5014480;28;20302;-63
2023/04/22 11:47:18;;;;;;;2.15;2.03;;;;;;;;;;5015220;28;20588;-63
2023/04/22 11:49:56;;;;;;;2.45;2.25;;;;;;;;;;5014389;28;20603;-63
2023/04/22 11:52:23;;;;;;;2.00;1.90;;;;;;;;;;5014668;28;20311;-63
2023/04/22 11:54:52;;;;;;;2.10;2.00;;;;;;;;;;5014781;28;20307;-63
2023/04/22 11:57:20;;;;;;;2.13;2.03;;;;;;;;;;5014808;28;20537;-63
2023/04/22 11:59:58;;;;;;;2.20;2.00;;;;;;;;;;5014612;28;20257;-63
2023/04/22 12:02:25;;;;;;;2.13;2.03;;;;;;;;;;5015159;28;20317;-63
2023/04/22 12:04:53;;;;;;;2.38;2.17;;;;;;;;;;5015292;28;20213;-63
2023/04/22 12:07:20;;;;;;;2.00;1.80;;;;;;;;;;5014889;28;20238;-63
2023/04/22 12:09:49;;;;;;;2.20;2.10;;;;;;;;;;5014047;28;20203;-63
2023/04/22 12:12:17;;;;;;;2.15;2.05;;;;;;;;;;5014326;28;20292;-63
2023/04/22 12:14:46;;;;;;;2.00;1.80;;;;;;;;;;5013596;28;20213;-63
2023/04/22 12:17:15;;;;;;;1.98;1.88;;;;;;;;;;5018242;28;20301;-63
2023/04/22 12:19:47;;;;;;;2.33;2.00;;;;;;;;;;5017699;28;20729;-63
2023/04/22 12:22:24;;;;;;;2.17;1.98;;;;;;;;;;5017888;28;20206;-63
2023/04/22 12:24:51;;;;;;;1.85;1.75;;;;;;;;;;5017711;28;20209;-63
2023/04/22 12:27:20;;;;;;;2.17;2.05;;;;;;;;;;5017831;28;20238;-63
2023/04/22 12:29:54;;;;;;;2.15;1.95;;;;;;;;;;5018379;28;20213;-63
2023/04/22 12:32:21;;;;;;;2.25;2.05;;;;;;;;;;5017834;28;20213;-63
2023/04/22 12:34:49;;;;;;;2.28;2.08;;;;;;;;;;5017418;28;20207;-63
2023/04/22 12:37:17;;;;;;;2.22;2.03;;;;;;;;;;5018107;28;20232;-63
2023/04/22 12:39:44;;;;;;;2.17;1.98;;;;;;;;;;5017065;28;20313;-63
2023/04/22 12:42:12;;;;;;;2.67;2.08;;;;;;;;;;5016615;28;20268;-63
2023/04/22 12:44:42;;;;;;;2.20;2.00;;;;;;;;;;5016913;28;20219;-63
2023/04/22 12:47:09;;;;;;;1.98;1.88;;;;;;;;;;5018378;28;20230;-63
2023/04/22 12:49:38;;;;;;;2.10;2.00;;;;;;;;;;5017066;28;20214;-63
2023/04/22 12:52:05;;;;;;;2.42;2.00;;;;;;;;;;5017420;28;20774;-63
2023/04/22 12:54:32;;;;;;;2.00;1.90;;;;;;;;;;5016023;28;20213;-64
2023/04/22 12:57:00;;;;;;;2.47;2.28;;;;;;;;;;5022072;28;20657;-63
2023/04/22 12:59:27;;;;;;;2.47;2.05;;;;;;;;;;5017363;28;20285;-63
2023/04/22 13:01:56;;;;;;;3.00;2.30;;;;;;;;;;5017223;28;20289;-63
2023/04/22 13:04:23;;;;;;;2.30;2.10;;;;;;;;;;5016878;28;20480;-63
2023/04/22 13:06:55;;;;;;;2.50;2.30;;;;;;;;;;5016982;28;20239;-62
2023/04/22 13:09:25;;;;;;;2.22;1.98;;;;;;;;;;5017366;28;20206;-63
2023/04/22 13:11:52;;;;;;;2.65;2.25;;;;;;;;;;5016961;28;20206;-62
2023/04/22 13:14:19;;;;;;;2.83;2.00;;;;;;;;;;5016490;28;20213;-62
2023/04/22 13:16:47;;;;;;;2.17;1.98;;;;;;;;;;5015544;28;20636;-62
2023/04/22 13:19:15;;;;;;;2.60;2.08;;;;;;;;;;5016387;28;20229;-62
2023/04/22 13:21:43;;;;;;;1.95;1.85;;;;;;;;;;5016220;28;20206;-62
2023/04/22 13:24:11;;;;;;;2.42;2.22;;;;;;;;;;5016383;28;20206;-62
2023/04/22 13:26:40;;;;;;;2.38;2.17;;;;;;;;;;5015900;28;20300;-62
2023/04/22 13:29:12;;;;;;;2.10;2.00;;;;;;;;;;5016397;28;20707;-62
2023/04/22 13:31:40;;;;;;;2.53;2.33;;;;;;;;;;5016377;28;20206;-62
2023/04/22 13:34:07;;;;;;;2.30;2.08;;;;;;;;;;5015757;28;20206;-63
2023/04/22 13:36:38;;;;;;;2.28;2.10;;;;;;;;;;5017331;28;20210;-63
2023/04/22 13:39:07;;;;;;;2.25;2.05;;;;;;;;;;5016567;28;20225;-63
2023/04/22 13:41:37;;;;;;;2.38;2.03;;;;;;;;;;5015469;28;20214;-62
2023/04/22 13:44:08;;;;;;;2.40;2.20;;;;;;;;;;5016374;28;20198;-62
2023/04/22 13:46:41;;;;;;;2.47;2.28;;;;;;;;;;4996564;28;20230;-63
2023/04/22 13:49:11;;;;;;;2.20;2.10;;;;;;;;;;5003129;28;20194;-63
2023/04/22 13:51:41;;;;;;;2.30;2.10;;;;;;;;;;5016158;28;20210;-62
2023/04/22 13:54:11;;;;;;;2.35;2.10;;;;;;;;;;5016177;28;20218;-63
2023/04/22 13:56:45;;;;;;;2.38;2.17;;;;;;;;;;5016308;28;20209;-62
2023/04/22 13:59:13;;;;;;;2.22;2.03;;;;;;;;;;5016248;28;20198;-63
2023/04/22 14:01:43;;;;;;;2.30;2.10;;;;;;;;;;5015886;28;20221;-62
2023/04/22 14:04:11;;;;;;;2.17;2.00;;;;;;;;;;5015870;28;20285;-62
2023/04/22 14:06:40;;;;;;;6.57;2.10;;;;;;;;;;5014686;28;20329;-63
2023/04/22 14:09:08;;;;;;;2.40;1.95;;;;;;;;;;5015942;28;20203;-63
2023/04/22 14:11:39;;;;;;;2.90;1.90;;;;;;;;;;5012989;28;20762;-62
2023/04/22 14:14:07;;;;;;;3.75;2.28;;;;;;;;;;5013589;28;20260;-62
2023/04/22 14:16:34;;;;;;;2.58;2.13;;;;;;;;;;5015249;28;20202;-62
2023/04/22 14:19:03;;;;;;;2.70;2.30;;;;;;;;;;5015141;28;20490;-63
2023/04/22 14:21:30;;;;;;;2.20;2.00;;;;;;;;;;5014560;28;20213;-62
2023/04/22 14:23:59;;;;;;;2.22;2.03;;;;;;;;;;5014846;28;20210;-62
2023/04/22 14:26:27;;;;;;;2.25;2.08;;;;;;;;;;5012529;28;20230;-62
2023/04/22 14:28:54;;;;;;;2.13;1.92;;;;;;;;;;5013034;28;20203;-62
2023/04/22 14:31:23;;;;;;;4.53;2.33;;;;;;;;;;5011828;28;20214;-62
2023/04/22 14:33:50;;;;;;;2.30;2.10;;;;;;;;;;5014289;28;20214;-62
2023/04/22 14:36:18;;;;;;;3.33;2.17;;;;;;;;;;5014274;28;20526;-62
2023/04/22 14:38:45;;;;;;;3.22;2.22;;;;;;;;;;5011312;28;20285;-62
2023/04/22 14:41:14;;;;;;;2.33;2.00;;;;;;;;;;5012113;28;20305;-62
2023/04/22 14:43:42;;;;;;;2.70;2.20;;;;;;;;;;5014309;28;20202;-62
2023/04/22 14:46:09;;;;;;;2.25;2.05;;;;;;;;;;5013944;28;20206;-62
2023/04/22 14:48:38;;;;;;;2.63;2.42;;;;;;;;;;5013292;28;20730;-62